createdAt,value
2018-12-24T00:00:46.229Z,-1.80
2018-12-24T00:03:18.621Z,-1.80
2018-12-24T00:05:50.200Z,-1.80
2018-12-24T00:08:19.997Z,-1.80
2018-12-24T00:10:49.280Z,-1.80
2018-12-24T00:13:22.056Z,-1.80
2018-12-24T00:15:52.877Z,-1.80
2018-12-24T00:18:25.786Z,-1.80
2018-12-24T00:20:58.300Z,-1.70
2018-12-24T00:23:30.275Z,-1.70
2018-12-24T00:26:02.574Z,-1.60
2018-12-24T00:28:34.149Z,-1.70
2018-12-24T00:31:06.184Z,-1.80
2018-12-24T00:33:37.771Z,-1.70
2018-12-24T00:36:09.273Z,-1.60
2018-12-24T00:38:42.700Z,-1.60
2018-12-24T00:41:13.530Z,-1.60
2018-12-24T00:43:45.590Z,-1.60
2018-12-24T00:46:17.215Z,-1.60
2018-12-24T00:48:49.274Z,-1.60
2018-12-24T00:51:24.632Z,-1.60
2018-12-24T00:53:55.670Z,-1.70
2018-12-24T00:56:26.953Z,-1.70
2018-12-24T00:58:57.899Z,-1.70
2018-12-24T01:01:30.706Z,-1.70
2018-12-24T01:04:01.385Z,-1.60
2018-12-24T01:06:32.018Z,-1.70
2018-12-24T01:09:04.723Z,-1.70
2018-12-24T01:11:37.132Z,-1.70
2018-12-24T01:14:12.826Z,-1.80
2018-12-24T01:16:45.139Z,-1.80
2018-12-24T01:19:17.853Z,-1.70
2018-12-24T01:21:49.321Z,-1.80
2018-12-24T01:24:21.076Z,-1.80
2018-12-24T01:26:54.009Z,-1.80
2018-12-24T01:29:22.792Z,-1.80
2018-12-24T01:31:54.825Z,-1.90
2018-12-24T01:34:27.122Z,-1.90
2018-12-24T01:37:00.591Z,-1.90
2018-12-24T01:39:34.154Z,-2.00
2018-12-24T01:42:04.779Z,-2.00
2018-12-24T01:44:38.997Z,-2.00
2018-12-24T01:47:10.036Z,-2.10
2018-12-24T01:49:40.989Z,-2.10
2018-12-24T01:52:11.645Z,-2.20
2018-12-24T01:54:40.866Z,-2.20
2018-12-24T01:57:09.576Z,-2.20
2018-12-24T01:59:42.580Z,-2.20
2018-12-24T02:02:15.090Z,-2.20
2018-12-24T02:04:47.685Z,-2.30
2018-12-24T02:07:21.290Z,-2.40
2018-12-24T02:09:51.760Z,-2.40
2018-12-24T02:12:21.961Z,-2.40
2018-12-24T02:14:51.369Z,-2.50
2018-12-24T02:17:21.620Z,-2.50
2018-12-24T02:19:52.091Z,-2.50
2018-12-24T02:22:23.312Z,-2.50
2018-12-24T02:24:55.803Z,-2.50
2018-12-24T02:27:28.597Z,-2.60
2018-12-24T02:30:00.221Z,-2.60
2018-12-24T02:32:32.828Z,-2.70
2018-12-24T02:35:03.625Z,-2.60
2018-12-24T02:37:35.804Z,-2.70
2018-12-24T02:40:08.809Z,-2.70
2018-12-24T02:42:41.361Z,-2.70
2018-12-24T02:45:17.399Z,-2.80
2018-12-24T02:47:48.832Z,-2.80
2018-12-24T02:50:20.624Z,-2.80
2018-12-24T02:52:52.707Z,-2.80
2018-12-24T02:55:23.645Z,-2.70
2018-12-24T02:57:55.589Z,-2.70
2018-12-24T03:00:25.838Z,-2.80
2018-12-24T03:02:55.409Z,-2.80
2018-12-24T03:05:27.021Z,-2.80
2018-12-24T03:07:57.762Z,-2.80
2018-12-24T03:10:29.035Z,-2.80
2018-12-24T03:13:03.390Z,-2.90
2018-12-24T03:15:34.083Z,-2.90
2018-12-24T03:18:02.869Z,-2.90
2018-12-24T03:20:35.569Z,-2.90
2018-12-24T03:23:09.049Z,-2.80
2018-12-24T03:25:40.567Z,-2.90
2018-12-24T03:28:11.647Z,-3.00
2018-12-24T03:30:42.536Z,-3.00
2018-12-24T03:33:14.447Z,-2.90
2018-12-24T03:35:50.102Z,-3.00
2018-12-24T03:38:23.137Z,-3.00
2018-12-24T03:40:55.627Z,-3.00
2018-12-24T03:43:26.621Z,-3.00
2018-12-24T03:45:56.089Z,-3.00
2018-12-24T03:48:24.869Z,-3.10
2018-12-24T03:50:58.390Z,-3.00
2018-12-24T03:53:29.456Z,-3.10
2018-12-24T03:56:05.416Z,-3.10
2018-12-24T03:58:36.474Z,-3.10
2018-12-24T04:01:07.837Z,-3.20
2018-12-24T04:03:38.408Z,-3.20
2018-12-24T04:06:09.388Z,-3.20
2018-12-24T04:08:42.141Z,-3.30
2018-12-24T04:11:14.457Z,-3.30
2018-12-24T04:13:44.137Z,-3.30
2018-12-24T04:16:14.263Z,-3.50
2018-12-24T04:18:46.297Z,-3.40
2018-12-24T04:21:19.185Z,-3.40
2018-12-24T04:23:51.498Z,-3.50
2018-12-24T04:26:24.145Z,-3.50
2018-12-24T04:28:55.204Z,-3.40
2018-12-24T04:31:24.616Z,-3.40
2018-12-24T04:33:56.024Z,-3.50
2018-12-24T04:36:29.629Z,-3.50
2018-12-24T04:39:00.663Z,-3.40
2018-12-24T04:41:31.480Z,-3.40
2018-12-24T04:44:03.317Z,-3.50
2018-12-24T04:46:33.691Z,-3.50
2018-12-24T04:49:05.601Z,-3.50
2018-12-24T04:51:36.501Z,-3.50
2018-12-24T04:54:08.341Z,-3.50
2018-12-24T04:56:39.458Z,-3.50
2018-12-24T04:59:10.848Z,-3.60
2018-12-24T05:01:42.437Z,-3.60
2018-12-24T05:04:12.469Z,-3.50
2018-12-24T05:06:41.174Z,-3.50
2018-12-24T05:09:13.899Z,-3.70
2018-12-24T05:11:45.436Z,-3.60
2018-12-24T05:14:15.193Z,-3.60
2018-12-24T05:16:45.416Z,-3.60
2018-12-24T05:19:14.557Z,-3.50
2018-12-24T05:21:44.847Z,-3.50
2018-12-24T05:24:17.470Z,-3.60
2018-12-24T05:26:46.992Z,-3.60
2018-12-24T05:29:16.601Z,-3.60
2018-12-24T05:31:48.398Z,-3.60
2018-12-24T05:34:18.425Z,-3.70
2018-12-24T05:36:50.766Z,-3.60
2018-12-24T05:39:22.095Z,-3.60
2018-12-24T05:41:55.597Z,-3.60
2018-12-24T05:44:26.558Z,-3.60
2018-12-24T05:46:58.580Z,-3.70
2018-12-24T05:49:32.047Z,-3.70
2018-12-24T05:52:02.933Z,-3.70
2018-12-24T05:54:32.969Z,-3.80
2018-12-24T05:57:02.158Z,-3.90
2018-12-24T05:59:31.525Z,-4.00
2018-12-24T06:02:00.938Z,-3.90
2018-12-24T06:04:30.645Z,-3.90
2018-12-24T06:07:00.475Z,-3.80
2018-12-24T06:09:29.764Z,-3.90
2018-12-24T06:12:00.713Z,-3.90
2018-12-24T06:14:33.101Z,-4.10
2018-12-24T06:17:03.280Z,-4.10
2018-12-24T06:19:32.540Z,-4.00
2018-12-24T06:22:02.634Z,-4.20
2018-12-24T06:24:33.284Z,-4.10
2018-12-24T06:27:02.397Z,-4.10
2018-12-24T06:29:32.097Z,-4.20
2018-12-24T06:32:04.097Z,-4.10
2018-12-24T06:34:35.564Z,-4.20
2018-12-24T06:37:07.570Z,-4.10
2018-12-24T06:39:39.140Z,-4.20
2018-12-24T06:42:11.053Z,-4.20
2018-12-24T06:44:43.314Z,-4.30
2018-12-24T06:47:17.065Z,-4.20
2018-12-24T06:49:49.045Z,-4.40
2018-12-24T06:52:25.512Z,-4.40
2018-12-24T06:54:57.484Z,-4.50
2018-12-24T06:57:30.103Z,-4.50
2018-12-24T07:00:02.929Z,-4.60
2018-12-24T07:02:36.328Z,-4.60
2018-12-24T07:05:08.150Z,-4.50
2018-12-24T07:07:41.451Z,-4.60
2018-12-24T07:10:16.460Z,-4.70
2018-12-24T07:12:48.009Z,-4.60
2018-12-24T07:15:20.465Z,-4.60
2018-12-24T07:18:00.850Z,-4.70
2018-12-24T07:20:32.811Z,-4.60
2018-12-24T07:23:04.842Z,-4.80
2018-12-24T07:25:35.286Z,-4.90
2018-12-24T07:28:06.665Z,-4.90
2018-12-24T07:30:38.013Z,-4.80
2018-12-24T07:33:10.478Z,-4.80
2018-12-24T07:35:42.293Z,-4.90
2018-12-24T07:38:15.321Z,-5.00
2018-12-24T07:40:51.134Z,-5.00
2018-12-24T07:43:23.234Z,-5.00
2018-12-24T07:45:54.366Z,-5.00
2018-12-24T07:48:24.892Z,-5.10
2018-12-24T07:50:58.291Z,-5.00
2018-12-24T07:53:29.072Z,-4.90
2018-12-24T07:56:01.365Z,-4.90
2018-12-24T07:58:35.049Z,-5.00
2018-12-24T08:01:07.502Z,-4.90
2018-12-24T08:03:39.195Z,-4.80
2018-12-24T08:06:11.077Z,-4.90
2018-12-24T08:08:42.853Z,-5.00
2018-12-24T08:11:15.529Z,-4.80
2018-12-24T08:13:46.296Z,-4.80
2018-12-24T08:16:17.925Z,-4.80
2018-12-24T08:18:51.170Z,-4.80
2018-12-24T08:21:24.342Z,-4.80
2018-12-24T08:23:55.883Z,-4.90
2018-12-24T08:26:27.895Z,-4.90
2018-12-24T08:29:00.533Z,-4.80
2018-12-24T08:31:35.937Z,-4.80
2018-12-24T08:34:07.952Z,-4.70
2018-12-24T08:36:38.931Z,-4.70
2018-12-24T08:39:09.426Z,-4.80
2018-12-24T08:41:38.609Z,-4.70
2018-12-24T08:44:11.740Z,-4.80
2018-12-24T08:46:46.221Z,-4.90
2018-12-24T08:49:18.689Z,-4.90
2018-12-24T08:51:50.606Z,-5.00
2018-12-24T08:54:24.660Z,-5.00
2018-12-24T08:56:57.269Z,-5.10
2018-12-24T08:59:26.986Z,-5.20
2018-12-24T09:01:58.085Z,-5.20
2018-12-24T09:04:29.481Z,-5.20
2018-12-24T09:07:00.636Z,-5.30
2018-12-24T09:09:32.235Z,-5.20
2018-12-24T09:12:04.603Z,-5.20
2018-12-24T09:14:37.243Z,-5.30
2018-12-24T09:17:07.918Z,-5.30
2018-12-24T09:19:39.016Z,-5.40
2018-12-24T09:22:09.831Z,-5.30
2018-12-24T09:24:42.859Z,-5.30
2018-12-24T09:27:11.874Z,-5.30
2018-12-24T09:29:41.969Z,-5.20
2018-12-24T09:32:12.077Z,-5.30
2018-12-24T09:34:43.594Z,-5.30
2018-12-24T09:37:13.836Z,-5.40
2018-12-24T09:39:44.005Z,-5.30
2018-12-24T09:42:14.102Z,-5.40
2018-12-24T09:44:44.684Z,-5.40
2018-12-24T09:47:16.018Z,-5.40
2018-12-24T09:49:48.435Z,-5.40
2018-12-24T09:52:20.189Z,-5.30
2018-12-24T09:54:50.923Z,-5.30
2018-12-24T09:57:21.912Z,-5.20
2018-12-24T09:59:53.877Z,-5.20
2018-12-24T10:02:29.161Z,-5.30
2018-12-24T10:05:01.825Z,-5.30
2018-12-24T10:07:46.288Z,-5.20
2018-12-24T10:10:19.209Z,-5.20
2018-12-24T10:12:51.057Z,-5.10
2018-12-24T10:15:22.491Z,-5.10
2018-12-24T10:17:56.237Z,-5.10
2018-12-24T10:20:29.869Z,-5.20
2018-12-24T10:23:01.287Z,-5.20
2018-12-24T10:25:34.735Z,-5.30
2018-12-24T10:28:08.097Z,-5.20
2018-12-24T10:30:39.114Z,-5.20
2018-12-24T10:33:10.315Z,-5.20
2018-12-24T10:35:42.909Z,-5.40
2018-12-24T10:38:13.608Z,-5.40
2018-12-24T10:40:54.665Z,-5.30
2018-12-24T10:43:25.832Z,-5.40
2018-12-24T10:45:56.628Z,-5.40
2018-12-24T10:48:29.045Z,-5.40
2018-12-24T10:51:01.408Z,-5.50
2018-12-24T10:53:35.068Z,-5.50
2018-12-24T10:56:13.483Z,-5.50
2018-12-24T10:58:43.669Z,-5.60
2018-12-24T11:01:13.000Z,-5.80
2018-12-24T11:03:42.696Z,-5.90
2018-12-24T11:06:12.582Z,-5.70
2018-12-24T11:08:47.029Z,-5.70
2018-12-24T11:11:19.706Z,-5.70
2018-12-24T11:13:53.613Z,-5.70
2018-12-24T11:16:26.057Z,-5.70
2018-12-24T11:18:57.960Z,-5.70
2018-12-24T11:21:29.309Z,-5.60
2018-12-24T11:24:00.697Z,-5.50
2018-12-24T11:26:32.847Z,-5.70
2018-12-24T11:29:05.938Z,-5.90
2018-12-24T11:31:37.777Z,-5.90
2018-12-24T11:34:10.170Z,-6.00
2018-12-24T11:36:43.689Z,-6.00
2018-12-24T11:39:14.637Z,-6.00
2018-12-24T11:41:48.149Z,-6.20
2018-12-24T11:44:19.576Z,-6.20
2018-12-24T11:46:50.481Z,-6.10
2018-12-24T11:49:22.403Z,-6.10
2018-12-24T11:51:59.193Z,-6.20
2018-12-24T11:54:31.253Z,-6.20
2018-12-24T11:57:05.752Z,-6.20
2018-12-24T11:59:35.585Z,-6.30
2018-12-24T12:02:10.453Z,-6.30
2018-12-24T12:04:42.557Z,-6.30
2018-12-24T12:07:14.200Z,-6.40
2018-12-24T12:09:46.088Z,-6.50
2018-12-24T12:12:19.518Z,-6.40
2018-12-24T12:14:56.192Z,-6.30
2018-12-24T12:17:29.368Z,-6.20
2018-12-24T12:19:58.864Z,-6.20
2018-12-24T12:22:28.680Z,-6.50
2018-12-24T12:24:59.557Z,-6.50
2018-12-24T12:27:30.333Z,-6.30
2018-12-24T12:30:02.365Z,-6.50
2018-12-24T12:32:34.665Z,-6.60
2018-12-24T12:35:06.617Z,-6.70
2018-12-24T12:37:39.020Z,-6.80
2018-12-24T12:40:11.665Z,-6.70
2018-12-24T12:42:43.436Z,-6.90
2018-12-24T12:45:14.486Z,-7.10
2018-12-24T12:47:46.594Z,-7.10
2018-12-24T12:50:17.391Z,-7.20
2018-12-24T12:52:48.825Z,-7.20
2018-12-24T12:55:21.425Z,-7.10
2018-12-24T12:57:52.830Z,-7.00
2018-12-24T13:00:23.860Z,-7.00
2018-12-24T13:02:55.691Z,-7.20
2018-12-24T13:05:29.065Z,-7.20
2018-12-24T13:08:01.986Z,-7.20
2018-12-24T13:10:31.613Z,-7.40
2018-12-24T13:13:03.980Z,-7.30
2018-12-24T13:15:37.453Z,-7.30
2018-12-24T13:18:09.708Z,-7.20
2018-12-24T13:20:41.281Z,-7.20
2018-12-24T13:23:14.033Z,-7.40
2018-12-24T13:25:45.239Z,-7.40
2018-12-24T13:28:14.376Z,-7.50
2018-12-24T13:30:43.228Z,-7.60
2018-12-24T13:33:13.286Z,-7.60
2018-12-24T13:35:42.255Z,-7.60
2018-12-24T13:38:13.271Z,-7.80
2018-12-24T13:40:44.183Z,-7.70
2018-12-24T13:43:12.981Z,-7.60
2018-12-24T13:45:44.617Z,-9.10
2018-12-24T13:48:16.399Z,-7.70
2018-12-24T13:50:48.980Z,-7.70
2018-12-24T13:53:20.532Z,-7.70
2018-12-24T13:55:51.370Z,-7.80
2018-12-24T13:58:26.368Z,-7.70
2018-12-24T14:00:59.771Z,-7.70
2018-12-24T14:03:32.348Z,-7.70
2018-12-24T14:06:24.478Z,-7.80
2018-12-24T14:08:56.618Z,-7.70
2018-12-24T14:11:31.345Z,-7.90
2018-12-24T14:14:03.763Z,-7.80
2018-12-24T14:16:36.233Z,-7.90
2018-12-24T14:19:08.649Z,-8.00
2018-12-24T14:21:40.141Z,-8.10
2018-12-24T14:24:12.054Z,-8.00
2018-12-24T14:26:44.016Z,-8.00
2018-12-24T14:29:15.405Z,-8.00
2018-12-24T14:31:45.164Z,-8.10
2018-12-24T14:34:18.161Z,-8.00
2018-12-24T14:36:55.659Z,-7.90
2018-12-24T14:39:27.152Z,-8.10
2018-12-24T14:41:58.044Z,-8.00
2018-12-24T14:44:34.811Z,-8.10
2018-12-24T14:47:07.412Z,-8.10
2018-12-24T14:49:39.384Z,-8.00
2018-12-24T14:52:08.392Z,-8.00
2018-12-24T14:54:38.065Z,-8.20
2018-12-24T14:57:08.889Z,-8.20
2018-12-24T14:59:42.415Z,-8.10
2018-12-24T15:02:14.897Z,-8.20
2018-12-24T15:04:45.569Z,-8.10
2018-12-24T15:07:15.659Z,-8.00
2018-12-24T15:09:45.292Z,-8.20
2018-12-24T15:12:15.869Z,-8.20
2018-12-24T15:14:46.873Z,-8.00
2018-12-24T15:17:18.376Z,-8.20
2018-12-24T15:19:50.097Z,-8.20
2018-12-24T15:22:21.117Z,-8.30
2018-12-24T15:24:52.489Z,-8.20
2018-12-24T15:27:25.332Z,-8.20
2018-12-24T15:29:57.595Z,-8.10
2018-12-24T15:32:29.844Z,-8.20
2018-12-24T15:35:00.170Z,-8.30
2018-12-24T15:37:29.346Z,-8.30
2018-12-24T15:40:01.316Z,-8.10
2018-12-24T15:42:32.115Z,-8.20
2018-12-24T15:45:04.810Z,-8.20
2018-12-24T15:47:36.865Z,-8.20
2018-12-24T15:50:08.812Z,-8.10
2018-12-24T15:52:40.302Z,-8.00
2018-12-24T15:55:10.034Z,-8.20
2018-12-24T15:57:41.969Z,-8.10
2018-12-24T16:00:13.597Z,-8.20
2018-12-24T16:02:45.976Z,-8.10
2018-12-24T16:05:17.824Z,-8.00
2018-12-24T16:07:47.317Z,-8.00
2018-12-24T16:10:17.929Z,-7.90
2018-12-24T16:12:55.141Z,-8.00
2018-12-24T16:15:27.053Z,-8.00
2018-12-24T16:18:03.882Z,-8.00
2018-12-24T16:20:36.183Z,-7.90
2018-12-24T16:23:08.112Z,-8.00
2018-12-24T16:25:39.210Z,-8.10
2018-12-24T16:28:09.940Z,-8.20
2018-12-24T16:30:42.350Z,-8.20
2018-12-24T16:33:13.871Z,-8.20
2018-12-24T16:35:49.033Z,-8.10
2018-12-24T16:38:20.886Z,-8.10
2018-12-24T16:40:53.005Z,-8.10
2018-12-24T16:43:24.436Z,-8.10
2018-12-24T16:45:56.027Z,-8.20
2018-12-24T16:48:27.505Z,-8.10
2018-12-24T16:51:00.136Z,-8.20
2018-12-24T16:53:40.497Z,-8.20
2018-12-24T16:56:07.921Z,-8.20
2018-12-24T16:58:39.506Z,-8.20
2018-12-24T17:01:14.672Z,-8.20
2018-12-24T17:03:47.704Z,-8.30
2018-12-24T17:06:18.250Z,-8.30
2018-12-24T17:08:46.925Z,-8.30
2018-12-24T17:11:16.084Z,-8.30
2018-12-24T17:13:46.037Z,-8.30
2018-12-24T17:16:16.022Z,-8.20
2018-12-24T17:18:45.949Z,-8.10
2018-12-24T17:21:17.393Z,-8.10
2018-12-24T17:23:49.193Z,-8.00
2018-12-24T17:26:20.724Z,-7.90
2018-12-24T17:28:52.852Z,-7.90
2018-12-24T17:31:25.685Z,-7.90
2018-12-24T17:33:54.852Z,-7.90
2018-12-24T17:36:23.992Z,-7.80
2018-12-24T17:38:53.560Z,-7.90
2018-12-24T17:41:22.473Z,-7.80
2018-12-24T17:43:53.401Z,-7.80
2018-12-24T17:46:25.047Z,-7.80
2018-12-24T17:48:56.045Z,-7.80
2018-12-24T17:51:28.765Z,-7.80
2018-12-24T17:54:00.981Z,-7.80
2018-12-24T17:56:33.613Z,-7.70
2018-12-24T17:59:05.631Z,-7.70
2018-12-24T18:01:39.129Z,-7.70
2018-12-24T18:04:10.222Z,-7.60
2018-12-24T18:06:43.145Z,-7.60
2018-12-24T18:09:14.642Z,-7.60
2018-12-24T18:11:48.641Z,-7.60
2018-12-24T18:14:20.821Z,-7.50
2018-12-24T18:16:53.081Z,-7.50
2018-12-24T18:19:24.565Z,-7.60
2018-12-24T18:21:55.490Z,-7.50
2018-12-24T18:24:27.592Z,-7.50
2018-12-24T18:27:00.092Z,-7.50
2018-12-24T18:29:31.865Z,-7.40
2018-12-24T18:32:03.990Z,-7.40
2018-12-24T18:34:35.156Z,-7.30
2018-12-24T18:37:07.698Z,-7.20
2018-12-24T18:39:40.506Z,-7.20
2018-12-24T18:42:12.925Z,-7.20
2018-12-24T18:44:44.265Z,-7.10
2018-12-24T18:47:15.580Z,-7.10
2018-12-24T18:49:50.041Z,-7.10
2018-12-24T18:52:21.098Z,-7.10
2018-12-24T18:54:53.625Z,-7.10
2018-12-24T18:57:24.505Z,-7.00
2018-12-24T18:59:54.457Z,-7.00
2018-12-24T19:02:26.348Z,-6.90
2018-12-24T19:04:58.918Z,-6.90
2018-12-24T19:07:31.313Z,-6.90
2018-12-24T19:10:02.059Z,-6.80
2018-12-24T19:12:33.644Z,-6.70
2018-12-24T19:15:05.609Z,-6.70
2018-12-24T19:17:41.535Z,-6.70
2018-12-24T19:20:13.225Z,-6.70
2018-12-24T19:22:44.565Z,-6.60
2018-12-24T19:25:17.485Z,-6.60
2018-12-24T19:27:48.429Z,-6.50
2018-12-24T19:30:17.620Z,-6.50
2018-12-24T19:32:47.672Z,-6.40
2018-12-24T19:35:20.043Z,-6.40
2018-12-24T19:37:51.705Z,-6.50
2018-12-24T19:40:22.749Z,-6.40
2018-12-24T19:42:53.586Z,-6.40
2018-12-24T19:45:24.874Z,-6.40
2018-12-24T19:47:57.393Z,-6.40
2018-12-24T19:50:27.953Z,-6.50
2018-12-24T19:52:57.657Z,-6.40
2018-12-24T19:55:30.486Z,-6.40
2018-12-24T19:58:01.600Z,-6.40
2018-12-24T20:00:31.113Z,-6.40
2018-12-24T20:03:02.781Z,-6.30
2018-12-24T20:05:32.720Z,-6.30
2018-12-24T20:08:03.310Z,-6.30
2018-12-24T20:10:34.357Z,-6.30
2018-12-24T20:13:06.476Z,-6.30
2018-12-24T20:15:38.196Z,-6.30
2018-12-24T20:18:09.689Z,-6.40
2018-12-24T20:20:41.676Z,-6.40
2018-12-24T20:23:16.441Z,-6.50
2018-12-24T20:25:48.650Z,-6.50
2018-12-24T20:28:20.272Z,-6.40
2018-12-24T20:30:49.749Z,-6.40
2018-12-24T20:33:19.364Z,-6.40
2018-12-24T20:35:49.360Z,-6.30
2018-12-24T20:38:21.532Z,-6.30
2018-12-24T20:40:54.056Z,-6.30
2018-12-24T20:43:26.549Z,-6.30
2018-12-24T20:45:58.235Z,-6.30
2018-12-24T20:48:29.764Z,-6.20
2018-12-24T20:51:02.569Z,-6.20
2018-12-24T20:53:34.201Z,-6.20
2018-12-24T20:56:07.370Z,-6.20
2018-12-24T20:58:41.885Z,-6.10
2018-12-24T21:01:15.787Z,-6.20
2018-12-24T21:03:47.414Z,-6.10
2018-12-24T21:06:18.523Z,-6.10
2018-12-24T21:08:50.528Z,-6.10
2018-12-24T21:11:21.582Z,-6.00
2018-12-24T21:13:51.711Z,-6.00
2018-12-24T21:16:24.561Z,-6.00
2018-12-24T21:18:56.293Z,-5.90
2018-12-24T21:21:48.401Z,-5.90
2018-12-24T21:24:18.827Z,-5.90
2018-12-24T21:26:51.702Z,-5.90
2018-12-24T21:29:22.376Z,-5.80
2018-12-24T21:31:54.237Z,-5.80
2018-12-24T21:34:27.958Z,-5.80
2018-12-24T21:36:58.440Z,-5.80
2018-12-24T21:39:27.592Z,-5.80
2018-12-24T21:41:58.293Z,-5.80
2018-12-24T21:44:31.789Z,-5.70
2018-12-24T21:47:05.605Z,-5.70
2018-12-24T21:49:38.053Z,-5.70
2018-12-24T21:52:08.051Z,-5.70
2018-12-24T21:54:39.529Z,-5.60
2018-12-24T21:57:09.885Z,-5.60
2018-12-24T21:59:42.281Z,-5.60
2018-12-24T22:02:14.360Z,-5.50
2018-12-24T22:04:46.041Z,-5.50
2018-12-24T22:07:21.161Z,-5.50
2018-12-24T22:09:52.077Z,-5.40
2018-12-24T22:12:23.372Z,-5.40
2018-12-24T22:14:52.464Z,-5.40
2018-12-24T22:17:22.246Z,-5.40
2018-12-24T22:19:51.245Z,-5.40
2018-12-24T22:22:20.412Z,-5.40
2018-12-24T22:24:50.171Z,-5.40
2018-12-24T22:27:20.225Z,-5.30
2018-12-24T22:29:49.649Z,-5.30
2018-12-24T22:32:23.007Z,-5.30
2018-12-24T22:34:54.430Z,-5.30
2018-12-24T22:37:27.001Z,-5.20
2018-12-24T22:39:57.286Z,-5.20
2018-12-24T22:42:26.784Z,-5.20
2018-12-24T22:44:58.665Z,-5.20
2018-12-24T22:47:29.137Z,-5.20
2018-12-24T22:49:59.913Z,-5.20
2018-12-24T22:52:32.245Z,-5.10
2018-12-24T22:55:04.622Z,-5.10
2018-12-24T22:57:35.009Z,-5.10
2018-12-24T23:00:07.178Z,-5.00
2018-12-24T23:02:39.988Z,-5.00
2018-12-24T23:05:12.476Z,-4.90
2018-12-24T23:07:44.045Z,-4.90
2018-12-24T23:10:14.997Z,-4.90
2018-12-24T23:12:50.061Z,-4.80
2018-12-24T23:15:22.641Z,-4.80
2018-12-24T23:17:55.210Z,-4.80
2018-12-24T23:20:26.573Z,-4.80
2018-12-24T23:22:58.113Z,-4.80
2018-12-24T23:25:29.179Z,-4.70
2018-12-24T23:28:01.294Z,-4.70
2018-12-24T23:30:33.449Z,-4.70
2018-12-24T23:33:05.995Z,-4.70
2018-12-24T23:35:36.144Z,-4.60
2018-12-24T23:38:05.329Z,-4.60
2018-12-24T23:40:34.684Z,-4.60
2018-12-24T23:43:08.443Z,-4.60
2018-12-24T23:45:39.245Z,-4.60
2018-12-24T23:48:10.710Z,-4.50
2018-12-24T23:50:43.147Z,-4.50
2018-12-24T23:53:16.817Z,-4.50
2018-12-24T23:55:48.947Z,-4.50
2018-12-24T23:58:19.883Z,-4.50
